createdAt,value
2022-11-26T00:01:19.826Z,7.13
2022-11-26T00:03:47.228Z,7.78
2022-11-26T00:06:31.871Z,7.40
2022-11-26T00:11:26.446Z,7.03
2022-11-26T00:13:53.690Z,7.13
2022-11-26T00:16:21.205Z,7.45
2022-11-26T00:18:48.565Z,7.03
2022-11-26T00:21:26.163Z,7.22
2022-11-26T00:23:53.821Z,7.45
2022-11-26T00:26:22.151Z,6.57
2022-11-26T00:28:56.872Z,7.03
2022-11-26T00:31:24.593Z,7.15
2022-11-26T00:33:51.959Z,6.55
2022-11-26T00:36:26.883Z,6.90
2022-11-26T00:38:56.583Z,7.30
2022-11-26T00:41:25.004Z,6.10
2022-11-26T00:43:52.288Z,7.28
2022-11-26T00:46:20.960Z,6.30
2022-11-26T00:48:48.237Z,7.45
2022-11-26T00:51:16.851Z,6.35
2022-11-26T00:53:44.356Z,6.70
2022-11-26T00:56:18.928Z,6.43
2022-11-26T00:58:46.752Z,6.13
2022-11-26T01:01:17.262Z,5.90
2022-11-26T01:03:44.566Z,5.57
2022-11-26T01:06:24.544Z,5.68
2022-11-26T01:08:51.798Z,5.93
2022-11-26T01:11:20.727Z,6.40
2022-11-26T01:13:48.915Z,5.63
2022-11-26T01:16:30.289Z,5.95
2022-11-26T01:18:59.134Z,6.07
2022-11-26T01:21:27.249Z,6.20
2022-11-26T01:23:54.562Z,6.00
2022-11-26T01:26:23.226Z,6.00
2022-11-26T01:28:50.792Z,5.93
2022-11-26T01:31:23.444Z,5.68
2022-11-26T01:33:51.021Z,6.20
2022-11-26T01:36:39.133Z,5.68
2022-11-26T01:39:10.719Z,6.15
2022-11-26T01:42:25.220Z,5.57
2022-11-26T01:44:52.445Z,5.72
2022-11-26T01:47:24.672Z,5.53
2022-11-26T01:50:29.286Z,6.10
2022-11-26T01:53:03.773Z,5.85
2022-11-26T01:55:38.532Z,5.95
2022-11-26T01:58:06.936Z,5.97
2022-11-26T02:00:34.153Z,5.68
2022-11-26T02:03:01.734Z,6.00
2022-11-26T02:05:29.951Z,5.50
2022-11-26T02:07:57.259Z,5.43
2022-11-26T02:10:24.558Z,5.72
2022-11-26T02:12:51.763Z,5.70
2022-11-26T02:15:19.014Z,5.53
2022-11-26T02:18:05.911Z,5.00
2022-11-26T02:20:49.239Z,5.00
2022-11-26T02:23:28.506Z,4.95
2022-11-26T02:26:29.231Z,4.57
2022-11-26T02:29:18.893Z,4.68
2022-11-26T02:32:24.781Z,4.93
2022-11-26T02:34:54.742Z,4.80
2022-11-26T02:37:23.314Z,5.10
2022-11-26T02:39:51.233Z,4.65
2022-11-26T02:42:27.705Z,4.90
2022-11-26T02:45:01.355Z,4.68
2022-11-26T02:47:28.921Z,4.72
2022-11-26T02:49:57.216Z,4.55
2022-11-26T02:52:24.476Z,5.28
2022-11-26T02:54:51.700Z,4.88
2022-11-26T02:57:19.356Z,5.18
2022-11-26T02:59:46.569Z,5.25
2022-11-26T03:02:34.210Z,4.85
2022-11-26T03:05:02.039Z,4.68
2022-11-26T03:07:30.069Z,4.97
2022-11-26T03:09:59.018Z,4.82
2022-11-26T03:12:26.484Z,4.75
2022-11-26T03:14:53.829Z,4.72
2022-11-26T03:17:21.157Z,5.10
2022-11-26T03:19:48.454Z,4.88
2022-11-26T03:22:15.814Z,5.28
2022-11-26T03:24:43.022Z,5.00
2022-11-26T03:27:10.226Z,5.22
2022-11-26T03:29:37.453Z,4.70
2022-11-26T03:32:05.045Z,4.35
2022-11-26T03:34:32.389Z,4.80
2022-11-26T03:36:59.616Z,4.78
2022-11-26T03:39:26.823Z,5.00
2022-11-26T03:41:54.009Z,5.07
2022-11-26T03:44:21.296Z,4.95
2022-11-26T03:46:48.530Z,5.07
2022-11-26T03:49:15.743Z,4.88
2022-11-26T03:51:42.990Z,5.70
2022-11-26T03:54:10.301Z,4.55
2022-11-26T03:56:37.498Z,4.78
2022-11-26T03:59:04.740Z,4.63
2022-11-26T04:01:32.100Z,5.13
2022-11-26T04:03:59.331Z,5.03
2022-11-26T04:06:26.601Z,4.57
2022-11-26T04:08:53.843Z,4.72
2022-11-26T04:11:21.072Z,5.20
2022-11-26T04:13:48.293Z,5.30
2022-11-26T04:16:15.617Z,5.60
2022-11-26T04:18:43.037Z,5.55
2022-11-26T04:21:10.272Z,6.07
2022-11-26T04:23:37.539Z,5.15
2022-11-26T04:26:05.007Z,5.63
2022-11-26T04:28:32.291Z,5.90
2022-11-26T04:31:00.819Z,5.70
2022-11-26T04:33:28.099Z,5.25
2022-11-26T04:35:55.325Z,5.72
2022-11-26T04:38:25.789Z,6.10
2022-11-26T04:40:53.436Z,4.90
2022-11-26T04:43:20.715Z,5.95
2022-11-26T04:45:48.003Z,5.65
2022-11-26T04:48:15.234Z,6.07
2022-11-26T04:50:42.461Z,5.80
2022-11-26T04:53:09.658Z,5.10
2022-11-26T04:55:36.888Z,5.55
2022-11-26T04:58:04.087Z,5.65
2022-11-26T05:00:31.314Z,5.30
2022-11-26T05:02:58.638Z,5.68
2022-11-26T05:05:25.884Z,5.95
2022-11-26T05:07:53.123Z,5.95
2022-11-26T05:10:20.420Z,6.47
2022-11-26T05:12:47.605Z,6.43
2022-11-26T05:15:14.842Z,6.70
2022-11-26T05:17:42.114Z,5.85
2022-11-26T05:20:09.849Z,6.00
2022-11-26T05:22:37.120Z,6.18
2022-11-26T05:25:04.571Z,6.97
2022-11-26T05:27:31.805Z,6.40
2022-11-26T05:29:59.008Z,6.57
2022-11-26T05:32:26.296Z,6.43
2022-11-26T05:34:59.713Z,6.50
2022-11-26T05:37:28.387Z,7.22
2022-11-26T05:39:55.610Z,6.70
2022-11-26T05:42:22.887Z,6.78
2022-11-26T05:44:50.106Z,6.60
2022-11-26T05:47:17.332Z,6.60
2022-11-26T05:49:44.589Z,6.32
2022-11-26T05:52:11.817Z,6.30
2022-11-26T05:54:39.287Z,6.47
2022-11-26T05:57:06.733Z,6.53
2022-11-26T05:59:34.020Z,6.72
2022-11-26T06:02:01.322Z,6.78
2022-11-26T06:04:29.665Z,6.80
2022-11-26T06:06:56.911Z,6.05
2022-11-26T06:09:24.192Z,7.30
2022-11-26T06:11:51.466Z,6.50
2022-11-26T06:14:18.779Z,6.45
2022-11-26T06:16:46.085Z,6.55
2022-11-26T06:19:13.527Z,6.95
2022-11-26T06:21:40.769Z,6.30
2022-11-26T06:24:08.115Z,6.47
2022-11-26T06:26:35.392Z,6.97
2022-11-26T06:29:02.851Z,6.82
2022-11-26T06:31:30.122Z,6.78
2022-11-26T06:33:57.439Z,6.68
2022-11-26T06:36:24.659Z,6.88
2022-11-26T06:38:51.890Z,6.68
2022-11-26T06:41:19.234Z,6.53
2022-11-26T06:43:46.479Z,6.32
2022-11-26T06:46:13.798Z,6.55
2022-11-26T06:48:41.063Z,6.72
2022-11-26T06:51:13.127Z,6.70
2022-11-26T06:53:40.429Z,5.55
2022-11-26T06:56:16.366Z,6.15
2022-11-26T06:58:47.341Z,5.60
2022-11-26T07:01:16.586Z,5.78
2022-11-26T07:03:43.815Z,5.80
2022-11-26T07:06:24.833Z,5.22
2022-11-26T07:08:52.662Z,5.32
2022-11-26T07:11:21.107Z,4.95
2022-11-26T07:13:48.382Z,4.90
2022-11-26T07:16:15.787Z,5.13
2022-11-26T07:18:43.100Z,4.43
2022-11-26T07:21:11.589Z,4.47
2022-11-26T07:23:39.549Z,4.55
2022-11-26T07:26:07.291Z,4.20
2022-11-26T07:28:34.724Z,4.20
2022-11-26T07:31:02.828Z,4.00
2022-11-26T07:33:30.182Z,4.03
2022-11-26T07:36:01.242Z,3.72
2022-11-26T07:38:28.972Z,3.78
2022-11-26T07:41:00.536Z,3.65
2022-11-26T07:43:27.808Z,3.70
2022-11-26T07:45:55.617Z,3.80
2022-11-26T07:48:23.301Z,3.40
2022-11-26T07:50:50.848Z,3.38
2022-11-26T07:53:18.377Z,3.58
2022-11-26T07:55:45.887Z,3.33
2022-11-26T07:58:13.728Z,3.17
2022-11-26T08:00:41.159Z,2.83
2022-11-26T08:03:08.763Z,2.80
2022-11-26T08:05:35.994Z,2.60
2022-11-26T08:08:03.275Z,2.47
2022-11-26T08:10:30.612Z,2.40
2022-11-26T08:12:57.877Z,2.20
2022-11-26T08:15:25.316Z,2.60
2022-11-26T08:17:56.949Z,2.45
2022-11-26T08:20:28.710Z,2.60
2022-11-26T08:22:56.469Z,2.28
2022-11-26T08:25:23.689Z,2.30
2022-11-26T08:27:50.931Z,2.83
2022-11-26T08:30:18.227Z,2.85
2022-11-26T08:32:45.590Z,2.67
2022-11-26T08:35:13.195Z,2.45
2022-11-26T08:37:42.560Z,2.85
2022-11-26T08:40:11.956Z,2.75
2022-11-26T08:42:41.280Z,2.55
2022-11-26T08:45:08.825Z,3.05
2022-11-26T08:47:36.196Z,2.90
2022-11-26T08:50:04.285Z,3.22
2022-11-26T08:52:32.604Z,3.58
2022-11-26T08:54:59.892Z,3.50
2022-11-26T08:57:27.173Z,3.58
2022-11-26T08:59:55.950Z,3.70
2022-11-26T09:02:24.322Z,3.30
2022-11-26T09:04:52.061Z,3.88
2022-11-26T09:07:19.509Z,3.97
2022-11-26T09:09:46.862Z,3.58
2022-11-26T09:12:14.216Z,4.18
2022-11-26T09:14:42.094Z,3.63
2022-11-26T09:17:10.928Z,4.10
2022-11-26T09:19:38.342Z,4.07
2022-11-26T09:22:05.782Z,4.15
2022-11-26T09:24:33.118Z,3.67
2022-11-26T09:27:07.630Z,3.63
2022-11-26T09:29:38.255Z,4.18
2022-11-26T09:34:53.764Z,3.53
2022-11-26T09:37:22.351Z,3.20
2022-11-26T09:39:50.669Z,3.85
2022-11-26T09:42:51.480Z,4.10
2022-11-26T09:45:37.724Z,4.38
2022-11-26T09:48:05.141Z,3.80
2022-11-26T09:50:32.735Z,4.40
2022-11-26T09:53:02.436Z,3.55
2022-11-26T09:55:35.383Z,4.38
2022-11-26T09:58:20.981Z,4.10
2022-11-26T10:00:52.637Z,4.38
2022-11-26T10:03:30.829Z,4.20
2022-11-26T10:06:05.042Z,3.92
2022-11-26T10:11:05.427Z,4.15
2022-11-26T10:14:06.792Z,3.10
2022-11-26T10:17:00.783Z,4.07
2022-11-26T10:23:12.509Z,4.40
2022-11-26T10:26:11.804Z,3.97
2022-11-26T10:28:47.314Z,32.25
2022-11-26T10:31:26.002Z,14.00
2022-11-26T10:34:03.649Z,8.85
2022-11-26T10:36:41.624Z,6.03
2022-11-26T10:39:14.389Z,6.22
2022-11-26T10:41:42.659Z,5.80
2022-11-26T10:44:31.675Z,6.65
2022-11-26T10:46:59.076Z,6.80
2022-11-26T10:49:28.301Z,7.45
2022-11-26T10:52:00.808Z,8.00
2022-11-26T10:54:38.193Z,7.30
2022-11-26T10:57:17.764Z,7.45
2022-11-26T10:59:45.085Z,7.88
2022-11-26T11:02:18.488Z,7.88
2022-11-26T11:04:46.756Z,8.07
2022-11-26T11:08:13.797Z,8.40
2022-11-26T11:11:33.665Z,10.35
2022-11-26T11:14:29.233Z,8.68
2022-11-26T11:16:56.565Z,8.60
2022-11-26T11:19:24.777Z,8.80
2022-11-26T11:21:52.342Z,8.52
2022-11-26T11:24:24.385Z,8.40
2022-11-26T11:26:55.278Z,8.25
2022-11-26T11:29:34.253Z,7.82
2022-11-26T11:32:04.362Z,8.15
2022-11-26T11:34:51.179Z,8.30
2022-11-26T11:37:23.538Z,8.05
2022-11-26T11:40:23.352Z,7.47
2022-11-26T11:43:00.139Z,7.90
2022-11-26T11:45:34.394Z,7.45
2022-11-26T11:48:33.145Z,7.15
2022-11-26T11:51:19.279Z,7.70
2022-11-26T11:54:40.331Z,8.02
2022-11-26T11:57:10.557Z,8.38
2022-11-26T12:00:29.465Z,8.52
2022-11-26T12:03:16.437Z,8.32
2022-11-26T12:06:17.393Z,7.95
2022-11-26T12:09:47.698Z,9.35
2022-11-26T12:16:23.597Z,8.30
2022-11-26T12:19:21.583Z,8.35
2022-11-26T12:21:57.320Z,9.32
2022-11-26T12:25:05.420Z,14.77
2022-11-26T12:27:50.258Z,14.13
2022-11-26T12:30:20.636Z,8.27
2022-11-26T12:33:08.056Z,7.55
2022-11-26T12:35:37.591Z,7.20
2022-11-26T12:38:36.061Z,7.03
2022-11-26T12:41:11.054Z,6.88
2022-11-26T12:43:52.875Z,6.78
2022-11-26T12:47:05.090Z,6.30
2022-11-26T12:50:35.505Z,7.07
2022-11-26T12:53:44.582Z,7.15
2022-11-26T12:56:42.076Z,7.03
2022-11-26T13:02:50.255Z,10.88
2022-11-26T13:10:26.551Z,7.10
2022-11-26T13:13:18.885Z,10.35
2022-11-26T13:15:50.188Z,6.80
2022-11-26T13:18:41.417Z,6.57
2022-11-26T13:21:11.956Z,6.55
2022-11-26T13:24:43.436Z,5.80
2022-11-26T13:27:29.890Z,6.90
2022-11-26T13:30:05.631Z,6.22
2022-11-26T13:37:26.472Z,6.57
2022-11-26T13:40:07.162Z,6.57
2022-11-26T13:42:56.375Z,6.43
2022-11-26T13:46:21.633Z,6.38
